sensor_id;sensor_type;location;lat;lon;timestamp;P1;durP1;ratioP1;P2;durP2;ratioP2
45548;SDS011;31270;48.328;10.096;2023-05-18T00:00:22;19.17;;;10.23;;
45548;SDS011;31270;48.328;10.096;2023-05-18T00:02:48;15.97;;;9.87;;
45548;SDS011;31270;48.328;10.096;2023-05-18T00:05:14;17.33;;;10.23;;
45548;SDS011;31270;48.328;10.096;2023-05-18T00:07:43;15.67;;;9.70;;
45548;SDS011;31270;48.328;10.096;2023-05-18T00:10:09;15.73;;;10.30;;
45548;SDS011;31270;48.328;10.096;2023-05-18T00:12:35;18.07;;;10.60;;
45548;SDS011;31270;48.328;10.096;2023-05-18T00:15:02;17.67;;;10.10;;
45548;SDS011;31270;48.328;10.096;2023-05-18T00:17:29;24.73;;;13.80;;
45548;SDS011;31270;48.328;10.096;2023-05-18T00:19:55;25.27;;;15.13;;
45548;SDS011;31270;48.328;10.096;2023-05-18T00:22:23;26.97;;;16.70;;
45548;SDS011;31270;48.328;10.096;2023-05-18T00:24:50;32.07;;;16.57;;
45548;SDS011;31270;48.328;10.096;2023-05-18T00:27:17;28.23;;;17.43;;
45548;SDS011;31270;48.328;10.096;2023-05-18T00:29:42;28.27;;;18.57;;
45548;SDS011;31270;48.328;10.096;2023-05-18T00:32:08;31.37;;;18.90;;
45548;SDS011;31270;48.328;10.096;2023-05-18T00:34:34;25.67;;;17.67;;
45548;SDS011;31270;48.328;10.096;2023-05-18T00:37:01;28.20;;;16.03;;
45548;SDS011;31270;48.328;10.096;2023-05-18T00:39:26;24.57;;;16.43;;
45548;SDS011;31270;48.328;10.096;2023-05-18T00:41:52;25.77;;;14.63;;
45548;SDS011;31270;48.328;10.096;2023-05-18T00:44:18;24.63;;;14.67;;
45548;SDS011;31270;48.328;10.096;2023-05-18T00:46:44;20.23;;;13.80;;
45548;SDS011;31270;48.328;10.096;2023-05-18T00:49:10;20.77;;;12.63;;
45548;SDS011;31270;48.328;10.096;2023-05-18T00:51:36;18.30;;;12.03;;
45548;SDS011;31270;48.328;10.096;2023-05-18T00:54:03;23.90;;;13.30;;
45548;SDS011;31270;48.328;10.096;2023-05-18T00:56:30;19.03;;;12.13;;
45548;SDS011;31270;48.328;10.096;2023-05-18T00:59:00;18.63;;;11.73;;
45548;SDS011;31270;48.328;10.096;2023-05-18T01:01:28;16.30;;;10.40;;
45548;SDS011;31270;48.328;10.096;2023-05-18T01:03:59;16.33;;;10.97;;
45548;SDS011;31270;48.328;10.096;2023-05-18T01:06:29;18.83;;;10.97;;
45548;SDS011;31270;48.328;10.096;2023-05-18T01:09:00;20.63;;;10.93;;
45548;SDS011;31270;48.328;10.096;2023-05-18T01:14:34;18.17;;;10.60;;
45548;SDS011;31270;48.328;10.096;2023-05-18T01:20:16;17.77;;;9.97;;
45548;SDS011;31270;48.328;10.096;2023-05-18T01:28:00;18.90;;;10.63;;
45548;SDS011;31270;48.328;10.096;2023-05-18T01:30:30;16.53;;;9.50;;
45548;SDS011;31270;48.328;10.096;2023-05-18T01:33:07;18.13;;;10.17;;
45548;SDS011;31270;48.328;10.096;2023-05-18T01:35:34;15.20;;;9.70;;
45548;SDS011;31270;48.328;10.096;2023-05-18T01:38:01;19.13;;;10.30;;
45548;SDS011;31270;48.328;10.096;2023-05-18T01:40:29;17.60;;;9.73;;
45548;SDS011;31270;48.328;10.096;2023-05-18T01:43:01;17.63;;;9.27;;
45548;SDS011;31270;48.328;10.096;2023-05-18T01:45:37;17.27;;;9.77;;
45548;SDS011;31270;48.328;10.096;2023-05-18T01:48:08;16.47;;;10.03;;
45548;SDS011;31270;48.328;10.096;2023-05-18T01:50:37;18.27;;;9.60;;
45548;SDS011;31270;48.328;10.096;2023-05-18T01:53:21;20.20;;;9.10;;
45548;SDS011;31270;48.328;10.096;2023-05-18T01:55:55;14.60;;;9.57;;
45548;SDS011;31270;48.328;10.096;2023-05-18T01:58:22;14.60;;;9.87;;
45548;SDS011;31270;48.328;10.096;2023-05-18T02:00:49;14.90;;;9.60;;
45548;SDS011;31270;48.328;10.096;2023-05-18T02:03:16;16.23;;;9.70;;
45548;SDS011;31270;48.328;10.096;2023-05-18T02:05:42;17.47;;;9.53;;
45548;SDS011;31270;48.328;10.096;2023-05-18T02:08:08;17.67;;;9.27;;
45548;SDS011;31270;48.328;10.096;2023-05-18T02:10:33;15.93;;;9.97;;
45548;SDS011;31270;48.328;10.096;2023-05-18T02:12:59;16.60;;;9.70;;
45548;SDS011;31270;48.328;10.096;2023-05-18T02:15:25;18.80;;;9.73;;
45548;SDS011;31270;48.328;10.096;2023-05-18T02:17:50;17.80;;;10.00;;
45548;SDS011;31270;48.328;10.096;2023-05-18T02:20:16;15.60;;;10.07;;
45548;SDS011;31270;48.328;10.096;2023-05-18T02:22:42;15.77;;;9.53;;
45548;SDS011;31270;48.328;10.096;2023-05-18T02:25:10;14.60;;;9.47;;
45548;SDS011;31270;48.328;10.096;2023-05-18T02:27:36;18.23;;;9.90;;
45548;SDS011;31270;48.328;10.096;2023-05-18T02:30:03;16.83;;;9.63;;
45548;SDS011;31270;48.328;10.096;2023-05-18T02:32:29;13.87;;;9.63;;
45548;SDS011;31270;48.328;10.096;2023-05-18T02:35:06;22.47;;;9.77;;
45548;SDS011;31270;48.328;10.096;2023-05-18T02:37:32;15.13;;;9.40;;
45548;SDS011;31270;48.328;10.096;2023-05-18T02:40:03;18.83;;;10.53;;
45548;SDS011;31270;48.328;10.096;2023-05-18T02:42:31;15.90;;;10.03;;
45548;SDS011;31270;48.328;10.096;2023-05-18T02:44:57;17.57;;;10.00;;
45548;SDS011;31270;48.328;10.096;2023-05-18T02:47:22;14.93;;;9.90;;
45548;SDS011;31270;48.328;10.096;2023-05-18T02:49:48;16.67;;;9.43;;
45548;SDS011;31270;48.328;10.096;2023-05-18T02:52:14;14.83;;;9.37;;
45548;SDS011;31270;48.328;10.096;2023-05-18T02:54:40;16.27;;;9.40;;
45548;SDS011;31270;48.328;10.096;2023-05-18T02:57:05;15.10;;;9.57;;
45548;SDS011;31270;48.328;10.096;2023-05-18T02:59:31;18.33;;;10.13;;
45548;SDS011;31270;48.328;10.096;2023-05-18T03:01:57;14.90;;;10.03;;
45548;SDS011;31270;48.328;10.096;2023-05-18T03:04:23;16.80;;;9.53;;
45548;SDS011;31270;48.328;10.096;2023-05-18T03:06:49;16.37;;;9.67;;
45548;SDS011;31270;48.328;10.096;2023-05-18T03:09:18;17.80;;;10.03;;
45548;SDS011;31270;48.328;10.096;2023-05-18T03:11:44;12.83;;;9.10;;
45548;SDS011;31270;48.328;10.096;2023-05-18T03:14:09;16.40;;;9.37;;
45548;SDS011;31270;48.328;10.096;2023-05-18T03:16:35;17.77;;;9.57;;
45548;SDS011;31270;48.328;10.096;2023-05-18T03:19:03;15.90;;;8.93;;
45548;SDS011;31270;48.328;10.096;2023-05-18T03:21:28;16.63;;;8.70;;
45548;SDS011;31270;48.328;10.096;2023-05-18T03:23:58;16.03;;;9.97;;
45548;SDS011;31270;48.328;10.096;2023-05-18T03:26:24;15.10;;;9.43;;
45548;SDS011;31270;48.328;10.096;2023-05-18T03:28:50;20.40;;;9.90;;
45548;SDS011;31270;48.328;10.096;2023-05-18T03:31:16;15.80;;;10.03;;
45548;SDS011;31270;48.328;10.096;2023-05-18T03:33:41;16.00;;;8.77;;
45548;SDS011;31270;48.328;10.096;2023-05-18T03:36:07;16.17;;;8.90;;
45548;SDS011;31270;48.328;10.096;2023-05-18T03:38:33;17.07;;;9.30;;
45548;SDS011;31270;48.328;10.096;2023-05-18T03:40:59;15.73;;;9.47;;
45548;SDS011;31270;48.328;10.096;2023-05-18T03:43:25;15.60;;;8.93;;
45548;SDS011;31270;48.328;10.096;2023-05-18T03:45:51;14.40;;;9.10;;
45548;SDS011;31270;48.328;10.096;2023-05-18T03:48:17;14.77;;;8.53;;
45548;SDS011;31270;48.328;10.096;2023-05-18T03:50:43;15.13;;;8.93;;
45548;SDS011;31270;48.328;10.096;2023-05-18T03:53:08;16.30;;;9.83;;
45548;SDS011;31270;48.328;10.096;2023-05-18T03:55:34;21.00;;;10.33;;
45548;SDS011;31270;48.328;10.096;2023-05-18T03:58:01;15.60;;;9.63;;
45548;SDS011;31270;48.328;10.096;2023-05-18T04:00:27;14.73;;;8.93;;
45548;SDS011;31270;48.328;10.096;2023-05-18T04:02:54;14.00;;;8.87;;
45548;SDS011;31270;48.328;10.096;2023-05-18T04:05:21;17.83;;;9.60;;
45548;SDS011;31270;48.328;10.096;2023-05-18T04:07:47;13.67;;;9.20;;
45548;SDS011;31270;48.328;10.096;2023-05-18T04:10:14;14.67;;;8.90;;
45548;SDS011;31270;48.328;10.096;2023-05-18T04:12:41;15.93;;;9.67;;
45548;SDS011;31270;48.328;10.096;2023-05-18T04:15:07;16.43;;;9.27;;
45548;SDS011;31270;48.328;10.096;2023-05-18T04:17:34;15.73;;;9.70;;
45548;SDS011;31270;48.328;10.096;2023-05-18T04:19:59;16.47;;;9.73;;
45548;SDS011;31270;48.328;10.096;2023-05-18T04:22:29;19.27;;;9.30;;
45548;SDS011;31270;48.328;10.096;2023-05-18T04:24:56;15.17;;;9.17;;
45548;SDS011;31270;48.328;10.096;2023-05-18T04:27:22;15.70;;;9.20;;
45548;SDS011;31270;48.328;10.096;2023-05-18T04:29:47;12.97;;;8.97;;
45548;SDS011;31270;48.328;10.096;2023-05-18T04:32:13;18.07;;;10.17;;
45548;SDS011;31270;48.328;10.096;2023-05-18T04:34:39;15.30;;;9.07;;
45548;SDS011;31270;48.328;10.096;2023-05-18T04:37:06;13.57;;;9.17;;
45548;SDS011;31270;48.328;10.096;2023-05-18T04:39:32;13.87;;;8.57;;
45548;SDS011;31270;48.328;10.096;2023-05-18T04:42:00;14.17;;;9.13;;
45548;SDS011;31270;48.328;10.096;2023-05-18T04:44:26;18.47;;;9.40;;
45548;SDS011;31270;48.328;10.096;2023-05-18T04:46:55;15.87;;;9.27;;
45548;SDS011;31270;48.328;10.096;2023-05-18T04:49:21;18.80;;;9.50;;
45548;SDS011;31270;48.328;10.096;2023-05-18T04:51:50;13.70;;;9.23;;
45548;SDS011;31270;48.328;10.096;2023-05-18T04:54:23;16.67;;;9.33;;
45548;SDS011;31270;48.328;10.096;2023-05-18T04:56:49;16.37;;;8.43;;
45548;SDS011;31270;48.328;10.096;2023-05-18T04:59:15;17.63;;;9.20;;
45548;SDS011;31270;48.328;10.096;2023-05-18T05:01:41;16.10;;;9.60;;
45548;SDS011;31270;48.328;10.096;2023-05-18T05:04:07;14.57;;;9.23;;
45548;SDS011;31270;48.328;10.096;2023-05-18T05:06:33;15.87;;;9.50;;
45548;SDS011;31270;48.328;10.096;2023-05-18T05:09:00;15.23;;;8.50;;
45548;SDS011;31270;48.328;10.096;2023-05-18T05:11:26;12.57;;;8.60;;
45548;SDS011;31270;48.328;10.096;2023-05-18T05:13:51;16.93;;;9.63;;
45548;SDS011;31270;48.328;10.096;2023-05-18T05:16:18;14.43;;;9.53;;
45548;SDS011;31270;48.328;10.096;2023-05-18T05:18:43;14.90;;;8.10;;
45548;SDS011;31270;48.328;10.096;2023-05-18T05:21:09;13.10;;;8.40;;
45548;SDS011;31270;48.328;10.096;2023-05-18T05:23:35;12.37;;;8.00;;
45548;SDS011;31270;48.328;10.096;2023-05-18T05:26:01;13.17;;;8.13;;
45548;SDS011;31270;48.328;10.096;2023-05-18T05:28:26;12.23;;;7.03;;
45548;SDS011;31270;48.328;10.096;2023-05-18T05:30:52;11.20;;;8.20;;
45548;SDS011;31270;48.328;10.096;2023-05-18T05:33:18;10.70;;;7.60;;
45548;SDS011;31270;48.328;10.096;2023-05-18T05:35:44;9.87;;;7.00;;
45548;SDS011;31270;48.328;10.096;2023-05-18T05:38:09;11.53;;;7.00;;
45548;SDS011;31270;48.328;10.096;2023-05-18T05:40:35;11.87;;;7.83;;
45548;SDS011;31270;48.328;10.096;2023-05-18T05:43:04;11.07;;;7.60;;
45548;SDS011;31270;48.328;10.096;2023-05-18T05:45:30;13.70;;;7.83;;
45548;SDS011;31270;48.328;10.096;2023-05-18T05:47:56;12.60;;;8.00;;
45548;SDS011;31270;48.328;10.096;2023-05-18T05:50:21;14.07;;;7.63;;
45548;SDS011;31270;48.328;10.096;2023-05-18T05:52:47;15.00;;;7.60;;
45548;SDS011;31270;48.328;10.096;2023-05-18T05:55:13;11.90;;;7.77;;
45548;SDS011;31270;48.328;10.096;2023-05-18T05:57:39;10.80;;;7.27;;
45548;SDS011;31270;48.328;10.096;2023-05-18T06:00:09;14.00;;;7.33;;
45548;SDS011;31270;48.328;10.096;2023-05-18T06:02:36;14.23;;;7.80;;
45548;SDS011;31270;48.328;10.096;2023-05-18T06:05:01;15.80;;;7.60;;
45548;SDS011;31270;48.328;10.096;2023-05-18T06:07:27;10.97;;;7.80;;
45548;SDS011;31270;48.328;10.096;2023-05-18T06:09:54;14.93;;;7.70;;
45548;SDS011;31270;48.328;10.096;2023-05-18T06:12:20;14.73;;;7.67;;
45548;SDS011;31270;48.328;10.096;2023-05-18T06:14:45;18.13;;;7.77;;
45548;SDS011;31270;48.328;10.096;2023-05-18T06:17:11;12.43;;;7.37;;
45548;SDS011;31270;48.328;10.096;2023-05-18T06:19:37;10.87;;;8.00;;
45548;SDS011;31270;48.328;10.096;2023-05-18T06:22:02;13.33;;;7.90;;
45548;SDS011;31270;48.328;10.096;2023-05-18T06:24:28;13.63;;;7.40;;
45548;SDS011;31270;48.328;10.096;2023-05-18T06:26:54;13.43;;;7.00;;
45548;SDS011;31270;48.328;10.096;2023-05-18T06:29:19;11.63;;;7.00;;
45548;SDS011;31270;48.328;10.096;2023-05-18T06:31:45;10.20;;;6.53;;
45548;SDS011;31270;48.328;10.096;2023-05-18T06:34:12;11.63;;;7.47;;
45548;SDS011;31270;48.328;10.096;2023-05-18T06:36:37;12.73;;;6.67;;
45548;SDS011;31270;48.328;10.096;2023-05-18T06:39:03;12.77;;;7.40;;
45548;SDS011;31270;48.328;10.096;2023-05-18T06:41:30;9.93;;;6.67;;
45548;SDS011;31270;48.328;10.096;2023-05-18T06:43:57;11.50;;;6.83;;
45548;SDS011;31270;48.328;10.096;2023-05-18T06:46:24;11.50;;;6.67;;
45548;SDS011;31270;48.328;10.096;2023-05-18T06:48:50;10.13;;;6.63;;
45548;SDS011;31270;48.328;10.096;2023-05-18T06:51:17;13.40;;;6.93;;
45548;SDS011;31270;48.328;10.096;2023-05-18T06:53:43;14.23;;;6.60;;
45548;SDS011;31270;48.328;10.096;2023-05-18T06:56:09;10.83;;;6.03;;
45548;SDS011;31270;48.328;10.096;2023-05-18T06:58:38;7.87;;;6.20;;
45548;SDS011;31270;48.328;10.096;2023-05-18T07:01:05;9.37;;;6.10;;
45548;SDS011;31270;48.328;10.096;2023-05-18T07:03:31;11.73;;;6.37;;
45548;SDS011;31270;48.328;10.096;2023-05-18T07:05:57;9.93;;;6.50;;
45548;SDS011;31270;48.328;10.096;2023-05-18T07:08:23;8.37;;;5.80;;
45548;SDS011;31270;48.328;10.096;2023-05-18T07:10:49;10.83;;;6.27;;
45548;SDS011;31270;48.328;10.096;2023-05-18T07:13:16;9.30;;;5.87;;
45548;SDS011;31270;48.328;10.096;2023-05-18T07:15:43;11.50;;;6.17;;
45548;SDS011;31270;48.328;10.096;2023-05-18T07:18:09;10.93;;;6.23;;
45548;SDS011;31270;48.328;10.096;2023-05-18T07:20:35;9.40;;;6.53;;
45548;SDS011;31270;48.328;10.096;2023-05-18T07:23:00;9.97;;;6.23;;
45548;SDS011;31270;48.328;10.096;2023-05-18T07:25:26;8.83;;;5.73;;
45548;SDS011;31270;48.328;10.096;2023-05-18T07:27:52;8.93;;;5.90;;
45548;SDS011;31270;48.328;10.096;2023-05-18T07:30:18;10.27;;;6.07;;
45548;SDS011;31270;48.328;10.096;2023-05-18T07:32:45;9.70;;;5.83;;
45548;SDS011;31270;48.328;10.096;2023-05-18T07:35:11;8.93;;;6.13;;
45548;SDS011;31270;48.328;10.096;2023-05-18T07:37:37;7.73;;;5.73;;
45548;SDS011;31270;48.328;10.096;2023-05-18T07:40:06;9.57;;;5.80;;
45548;SDS011;31270;48.328;10.096;2023-05-18T07:42:34;7.77;;;6.10;;
45548;SDS011;31270;48.328;10.096;2023-05-18T07:45:00;8.60;;;5.20;;
45548;SDS011;31270;48.328;10.096;2023-05-18T07:47:25;10.70;;;5.77;;
45548;SDS011;31270;48.328;10.096;2023-05-18T07:49:51;10.33;;;5.27;;
45548;SDS011;31270;48.328;10.096;2023-05-18T07:52:16;6.07;;;5.20;;
45548;SDS011;31270;48.328;10.096;2023-05-18T07:54:42;8.97;;;5.20;;
45548;SDS011;31270;48.328;10.096;2023-05-18T07:57:08;10.07;;;5.40;;
45548;SDS011;31270;48.328;10.096;2023-05-18T07:59:34;9.03;;;5.00;;
45548;SDS011;31270;48.328;10.096;2023-05-18T08:02:00;9.27;;;5.37;;
45548;SDS011;31270;48.328;10.096;2023-05-18T08:04:26;11.33;;;5.60;;
45548;SDS011;31270;48.328;10.096;2023-05-18T08:06:52;11.67;;;5.40;;
45548;SDS011;31270;48.328;10.096;2023-05-18T08:09:19;7.73;;;5.03;;
45548;SDS011;31270;48.328;10.096;2023-05-18T08:11:48;7.37;;;5.23;;
45548;SDS011;31270;48.328;10.096;2023-05-18T08:14:18;7.37;;;4.90;;
45548;SDS011;31270;48.328;10.096;2023-05-18T08:16:46;8.27;;;4.90;;
45548;SDS011;31270;48.328;10.096;2023-05-18T08:19:14;8.77;;;5.00;;
45548;SDS011;31270;48.328;10.096;2023-05-18T08:21:40;7.70;;;5.00;;
45548;SDS011;31270;48.328;10.096;2023-05-18T08:24:06;13.07;;;5.50;;
45548;SDS011;31270;48.328;10.096;2023-05-18T08:26:33;7.27;;;4.80;;
45548;SDS011;31270;48.328;10.096;2023-05-18T08:29:02;13.23;;;5.07;;
45548;SDS011;31270;48.328;10.096;2023-05-18T08:31:36;10.77;;;4.47;;
45548;SDS011;31270;48.328;10.096;2023-05-18T08:34:03;12.23;;;5.67;;
45548;SDS011;31270;48.328;10.096;2023-05-18T08:36:32;7.73;;;5.03;;
45548;SDS011;31270;48.328;10.096;2023-05-18T08:38:59;7.30;;;4.90;;
45548;SDS011;31270;48.328;10.096;2023-05-18T08:41:31;7.53;;;5.03;;
45548;SDS011;31270;48.328;10.096;2023-05-18T08:44:01;10.23;;;5.30;;
45548;SDS011;31270;48.328;10.096;2023-05-18T08:46:34;8.03;;;4.43;;
45548;SDS011;31270;48.328;10.096;2023-05-18T08:49:06;12.97;;;5.40;;
45548;SDS011;31270;48.328;10.096;2023-05-18T08:51:35;9.03;;;5.13;;
45548;SDS011;31270;48.328;10.096;2023-05-18T08:54:01;10.67;;;5.23;;
45548;SDS011;31270;48.328;10.096;2023-05-18T08:56:30;8.77;;;4.87;;
45548;SDS011;31270;48.328;10.096;2023-05-18T08:59:02;8.70;;;5.23;;
45548;SDS011;31270;48.328;10.096;2023-05-18T09:01:32;12.57;;;5.60;;
45548;SDS011;31270;48.328;10.096;2023-05-18T09:03:58;9.02;;;4.95;;
45548;SDS011;31270;48.328;10.096;2023-05-18T09:06:24;7.18;;;4.43;;
45548;SDS011;31270;48.328;10.096;2023-05-18T09:08:53;6.97;;;4.60;;
45548;SDS011;31270;48.328;10.096;2023-05-18T09:11:21;11.57;;;5.60;;
45548;SDS011;31270;48.328;10.096;2023-05-18T09:13:49;8.18;;;5.03;;
45548;SDS011;31270;48.328;10.096;2023-05-18T09:16:16;11.32;;;5.53;;
45548;SDS011;31270;48.328;10.096;2023-05-18T09:18:43;7.72;;;4.50;;
45548;SDS011;31270;48.328;10.096;2023-05-18T09:21:10;13.75;;;5.22;;
45548;SDS011;31270;48.328;10.096;2023-05-18T09:23:38;7.07;;;5.30;;
45548;SDS011;31270;48.328;10.096;2023-05-18T09:26:04;8.05;;;5.63;;
45548;SDS011;31270;48.328;10.096;2023-05-18T09:28:36;8.30;;;5.43;;
45548;SDS011;31270;48.328;10.096;2023-05-18T09:31:06;9.70;;;5.57;;
45548;SDS011;31270;48.328;10.096;2023-05-18T09:33:35;7.95;;;5.78;;
45548;SDS011;31270;48.328;10.096;2023-05-18T09:36:06;9.55;;;5.35;;
45548;SDS011;31270;48.328;10.096;2023-05-18T09:38:36;8.50;;;5.97;;
45548;SDS011;31270;48.328;10.096;2023-05-18T09:41:03;11.07;;;5.32;;
45548;SDS011;31270;48.328;10.096;2023-05-18T09:43:34;10.40;;;4.93;;
45548;SDS011;31270;48.328;10.096;2023-05-18T09:46:00;9.25;;;5.22;;
45548;SDS011;31270;48.328;10.096;2023-05-18T09:48:31;6.72;;;4.90;;
45548;SDS011;31270;48.328;10.096;2023-05-18T09:51:00;6.43;;;4.82;;
45548;SDS011;31270;48.328;10.096;2023-05-18T09:53:26;9.55;;;5.82;;
45548;SDS011;31270;48.328;10.096;2023-05-18T09:55:51;5.72;;;4.90;;
45548;SDS011;31270;48.328;10.096;2023-05-18T09:58:17;11.68;;;5.47;;
45548;SDS011;31270;48.328;10.096;2023-05-18T10:00:46;8.40;;;5.20;;
45548;SDS011;31270;48.328;10.096;2023-05-18T10:03:22;7.22;;;4.50;;
45548;SDS011;31270;48.328;10.096;2023-05-18T10:05:48;5.50;;;4.33;;
45548;SDS011;31270;48.328;10.096;2023-05-18T10:08:15;7.43;;;4.90;;
45548;SDS011;31270;48.328;10.096;2023-05-18T10:10:45;10.63;;;4.85;;
45548;SDS011;31270;48.328;10.096;2023-05-18T10:13:16;8.33;;;4.87;;
45548;SDS011;31270;48.328;10.096;2023-05-18T10:15:47;11.80;;;4.70;;
45548;SDS011;31270;48.328;10.096;2023-05-18T10:18:21;11.35;;;5.00;;
45548;SDS011;31270;48.328;10.096;2023-05-18T10:20:49;10.80;;;4.60;;
45548;SDS011;31270;48.328;10.096;2023-05-18T10:23:17;10.20;;;4.75;;
45548;SDS011;31270;48.328;10.096;2023-05-18T10:25:44;7.53;;;4.60;;
45548;SDS011;31270;48.328;10.096;2023-05-18T10:28:13;5.32;;;4.45;;
45548;SDS011;31270;48.328;10.096;2023-05-18T10:30:44;7.25;;;4.22;;
45548;SDS011;31270;48.328;10.096;2023-05-18T10:33:12;7.38;;;4.60;;
45548;SDS011;31270;48.328;10.096;2023-05-18T10:35:39;10.55;;;4.28;;
45548;SDS011;31270;48.328;10.096;2023-05-18T10:38:05;7.05;;;4.20;;
45548;SDS011;31270;48.328;10.096;2023-05-18T10:40:31;6.15;;;4.07;;
45548;SDS011;31270;48.328;10.096;2023-05-18T10:43:00;8.18;;;4.03;;
45548;SDS011;31270;48.328;10.096;2023-05-18T10:45:28;5.60;;;3.42;;
45548;SDS011;31270;48.328;10.096;2023-05-18T10:47:58;6.25;;;4.10;;
45548;SDS011;31270;48.328;10.096;2023-05-18T10:50:25;9.98;;;4.03;;
45548;SDS011;31270;48.328;10.096;2023-05-18T10:52:52;6.72;;;3.47;;
45548;SDS011;31270;48.328;10.096;2023-05-18T10:55:20;6.82;;;3.92;;
45548;SDS011;31270;48.328;10.096;2023-05-18T10:57:47;8.07;;;3.78;;
45548;SDS011;31270;48.328;10.096;2023-05-18T11:00:17;6.25;;;3.75;;
45548;SDS011;31270;48.328;10.096;2023-05-18T11:02:44;7.65;;;3.97;;
45548;SDS011;31270;48.328;10.096;2023-05-18T11:05:11;6.82;;;4.13;;
45548;SDS011;31270;48.328;10.096;2023-05-18T11:07:37;8.65;;;3.67;;
45548;SDS011;31270;48.328;10.096;2023-05-18T11:10:06;5.68;;;3.50;;
45548;SDS011;31270;48.328;10.096;2023-05-18T11:12:34;8.95;;;4.00;;
45548;SDS011;31270;48.328;10.096;2023-05-18T11:15:05;9.85;;;3.80;;
45548;SDS011;31270;48.328;10.096;2023-05-18T11:17:32;7.20;;;4.00;;
45548;SDS011;31270;48.328;10.096;2023-05-18T11:23:01;6.60;;;3.38;;
45548;SDS011;31270;48.328;10.096;2023-05-18T11:28:00;6.38;;;3.78;;
45548;SDS011;31270;48.328;10.096;2023-05-18T11:30:29;10.00;;;3.42;;
45548;SDS011;31270;48.328;10.096;2023-05-18T11:38:50;5.03;;;3.78;;
45548;SDS011;31270;48.328;10.096;2023-05-18T11:41:30;8.65;;;3.78;;
45548;SDS011;31270;48.328;10.096;2023-05-18T11:44:16;6.65;;;3.60;;
45548;SDS011;31270;48.328;10.096;2023-05-18T11:49:23;9.48;;;3.90;;
45548;SDS011;31270;48.328;10.096;2023-05-18T11:51:54;9.70;;;4.32;;
45548;SDS011;31270;48.328;10.096;2023-05-18T11:54:23;8.00;;;4.10;;
45548;SDS011;31270;48.328;10.096;2023-05-18T11:56:53;6.65;;;3.97;;
45548;SDS011;31270;48.328;10.096;2023-05-18T11:59:32;8.60;;;3.95;;
45548;SDS011;31270;48.328;10.096;2023-05-18T12:02:01;7.70;;;4.05;;
45548;SDS011;31270;48.328;10.096;2023-05-18T12:04:28;8.85;;;4.07;;
45548;SDS011;31270;48.328;10.096;2023-05-18T12:06:55;6.30;;;3.75;;
45548;SDS011;31270;48.328;10.096;2023-05-18T12:09:22;6.55;;;3.67;;
45548;SDS011;31270;48.328;10.096;2023-05-18T12:11:49;7.57;;;3.72;;
45548;SDS011;31270;48.328;10.096;2023-05-18T12:14:17;6.50;;;4.07;;
45548;SDS011;31270;48.328;10.096;2023-05-18T12:16:45;13.18;;;3.83;;
45548;SDS011;31270;48.328;10.096;2023-05-18T12:19:12;13.53;;;5.50;;
45548;SDS011;31270;48.328;10.096;2023-05-18T12:21:37;11.40;;;4.80;;
45548;SDS011;31270;48.328;10.096;2023-05-18T12:24:03;8.80;;;4.28;;
45548;SDS011;31270;48.328;10.096;2023-05-18T12:26:29;7.07;;;3.67;;
45548;SDS011;31270;48.328;10.096;2023-05-18T12:28:56;5.88;;;4.10;;
45548;SDS011;31270;48.328;10.096;2023-05-18T12:31:26;7.82;;;4.30;;
45548;SDS011;31270;48.328;10.096;2023-05-18T12:33:52;6.43;;;3.90;;
45548;SDS011;31270;48.328;10.096;2023-05-18T12:36:19;8.15;;;3.90;;
45548;SDS011;31270;48.328;10.096;2023-05-18T12:38:48;7.80;;;3.97;;
45548;SDS011;31270;48.328;10.096;2023-05-18T12:41:23;6.63;;;3.40;;
45548;SDS011;31270;48.328;10.096;2023-05-18T12:43:52;6.87;;;3.77;;
45548;SDS011;31270;48.328;10.096;2023-05-18T12:46:21;6.50;;;3.60;;
45548;SDS011;31270;48.328;10.096;2023-05-18T12:48:57;7.00;;;4.10;;
45548;SDS011;31270;48.328;10.096;2023-05-18T12:51:32;9.07;;;3.63;;
45548;SDS011;31270;48.328;10.096;2023-05-18T12:53:59;6.97;;;3.83;;
45548;SDS011;31270;48.328;10.096;2023-05-18T12:56:51;11.67;;;4.10;;
45548;SDS011;31270;48.328;10.096;2023-05-18T12:59:25;6.63;;;3.70;;
45548;SDS011;31270;48.328;10.096;2023-05-18T13:01:54;7.13;;;3.80;;
45548;SDS011;31270;48.328;10.096;2023-05-18T13:04:21;8.57;;;3.80;;
45548;SDS011;31270;48.328;10.096;2023-05-18T13:06:47;7.73;;;3.30;;
45548;SDS011;31270;48.328;10.096;2023-05-18T13:09:13;5.37;;;3.83;;
45548;SDS011;31270;48.328;10.096;2023-05-18T13:11:40;5.00;;;3.97;;
45548;SDS011;31270;48.328;10.096;2023-05-18T13:14:12;8.60;;;4.07;;
45548;SDS011;31270;48.328;10.096;2023-05-18T13:16:40;8.73;;;3.73;;
45548;SDS011;31270;48.328;10.096;2023-05-18T13:19:09;7.60;;;4.20;;
45548;SDS011;31270;48.328;10.096;2023-05-18T13:21:36;7.80;;;3.75;;
45548;SDS011;31270;48.328;10.096;2023-05-18T13:24:05;9.37;;;4.03;;
45548;SDS011;31270;48.328;10.096;2023-05-18T13:26:31;5.90;;;3.37;;
45548;SDS011;31270;48.328;10.096;2023-05-18T13:28:57;6.00;;;4.00;;
45548;SDS011;31270;48.328;10.096;2023-05-18T13:31:24;7.47;;;3.37;;
45548;SDS011;31270;48.328;10.096;2023-05-18T13:33:50;8.73;;;4.17;;
45548;SDS011;31270;48.328;10.096;2023-05-18T13:36:16;6.43;;;3.63;;
45548;SDS011;31270;48.328;10.096;2023-05-18T13:38:43;5.80;;;4.07;;
45548;SDS011;31270;48.328;10.096;2023-05-18T13:41:09;7.20;;;3.73;;
45548;SDS011;31270;48.328;10.096;2023-05-18T13:43:36;6.40;;;3.60;;
45548;SDS011;31270;48.328;10.096;2023-05-18T13:46:02;5.80;;;3.53;;
45548;SDS011;31270;48.328;10.096;2023-05-18T13:48:28;8.43;;;3.70;;
45548;SDS011;31270;48.328;10.096;2023-05-18T13:50:55;5.57;;;3.73;;
45548;SDS011;31270;48.328;10.096;2023-05-18T13:53:20;8.00;;;3.93;;
45548;SDS011;31270;48.328;10.096;2023-05-18T13:55:47;8.17;;;3.83;;
45548;SDS011;31270;48.328;10.096;2023-05-18T13:58:14;7.37;;;3.70;;
45548;SDS011;31270;48.328;10.096;2023-05-18T14:00:40;7.57;;;4.38;;
45548;SDS011;31270;48.328;10.096;2023-05-18T14:03:06;7.40;;;4.00;;
45548;SDS011;31270;48.328;10.096;2023-05-18T14:05:32;10.50;;;4.80;;
45548;SDS011;31270;48.328;10.096;2023-05-18T14:07:58;9.67;;;3.90;;
45548;SDS011;31270;48.328;10.096;2023-05-18T14:10:24;4.63;;;3.55;;
45548;SDS011;31270;48.328;10.096;2023-05-18T14:12:49;8.77;;;3.75;;
45548;SDS011;31270;48.328;10.096;2023-05-18T14:15:15;8.30;;;4.72;;
45548;SDS011;31270;48.328;10.096;2023-05-18T14:17:41;6.38;;;3.80;;
45548;SDS011;31270;48.328;10.096;2023-05-18T14:20:07;4.90;;;3.80;;
45548;SDS011;31270;48.328;10.096;2023-05-18T14:22:34;8.93;;;3.67;;
45548;SDS011;31270;48.328;10.096;2023-05-18T14:25:00;11.80;;;3.97;;
45548;SDS011;31270;48.328;10.096;2023-05-18T14:27:27;6.75;;;4.03;;
45548;SDS011;31270;48.328;10.096;2023-05-18T14:29:52;5.80;;;3.45;;
45548;SDS011;31270;48.328;10.096;2023-05-18T14:32:19;6.60;;;3.70;;
45548;SDS011;31270;48.328;10.096;2023-05-18T14:34:47;7.40;;;3.50;;
45548;SDS011;31270;48.328;10.096;2023-05-18T14:37:19;8.93;;;4.05;;
45548;SDS011;31270;48.328;10.096;2023-05-18T14:39:45;6.90;;;3.70;;
45548;SDS011;31270;48.328;10.096;2023-05-18T14:42:11;10.25;;;3.78;;
45548;SDS011;31270;48.328;10.096;2023-05-18T14:44:37;8.60;;;4.05;;
45548;SDS011;31270;48.328;10.096;2023-05-18T14:47:02;7.05;;;3.70;;
45548;SDS011;31270;48.328;10.096;2023-05-18T14:49:28;7.70;;;4.32;;
45548;SDS011;31270;48.328;10.096;2023-05-18T14:51:54;7.60;;;3.28;;